Time;durP1;ratioP1;P1;durP2;ratioP2;P2;SDS_P1;SDS_P2;PMS_P1;PMS_P2;Temp;Humidity;BMP_temperature;BMP_pressure;BME280_temperature;BME280_humidity;BME280_pressure;Samples;Min_cycle;Max_cycle;Signal;HPM_P1;HPM_P2
2023/01/09 00:00:04;;;;;;;23.85;4.72;;;;;;;;;;5033725;28;20022;-38
2023/01/09 00:02:31;;;;;;;25.88;5.63;;;;;;;;;;5033670;28;20097;-38
2023/01/09 00:04:58;;;;;;;26.65;4.85;;;;;;;;;;5015712;28;20124;-37
2023/01/09 00:07:25;;;;;;;28.73;5.15;;;;;;;;;;5033551;28;20079;-38
2023/01/09 00:09:52;;;;;;;25.83;5.10;;;;;;;;;;5033513;28;20111;-37
2023/01/09 00:12:19;;;;;;;31.25;5.30;;;;;;;;;;5033579;28;20096;-38
2023/01/09 00:14:46;;;;;;;30.25;4.65;;;;;;;;;;5033428;28;20099;-37
2023/01/09 00:17:13;;;;;;;22.70;4.45;;;;;;;;;;5033328;28;20045;-37
2023/01/09 00:19:40;;;;;;;26.25;4.88;;;;;;;;;;5033371;28;20032;-38
2023/01/09 00:22:08;;;;;;;33.35;5.32;;;;;;;;;;5033217;28;20026;-38
2023/01/09 00:24:38;;;;;;;24.05;5.10;;;;;;;;;;5033050;28;20040;-38
2023/01/09 00:27:05;;;;;;;22.17;4.90;;;;;;;;;;5033105;28;20033;-38
2023/01/09 00:29:32;;;;;;;18.77;4.40;;;;;;;;;;5033218;28;20022;-38
2023/01/09 00:31:59;;;;;;;23.52;4.25;;;;;;;;;;5033139;28;20509;-38
2023/01/09 00:34:26;;;;;;;21.92;4.40;;;;;;;;;;5032410;28;20098;-38
2023/01/09 00:36:55;;;;;;;23.60;4.40;;;;;;;;;;5032560;28;20049;-38
2023/01/09 00:39:23;;;;;;;30.15;5.18;;;;;;;;;;5032860;28;20494;-37
2023/01/09 00:41:52;;;;;;;27.67;4.60;;;;;;;;;;5032819;28;20053;-38
2023/01/09 00:44:28;;;;;;;19.10;4.18;;;;;;;;;;5032738;28;20399;-37
2023/01/09 00:46:57;;;;;;;21.13;4.85;;;;;;;;;;5032769;28;20029;-37
2023/01/09 00:49:24;;;;;;;22.38;4.07;;;;;;;;;;5032828;28;20026;-37
2023/01/09 00:51:53;;;;;;;24.00;4.53;;;;;;;;;;5032747;28;20022;-38
2023/01/09 00:54:20;;;;;;;25.45;4.80;;;;;;;;;;5032741;28;20071;-38
2023/01/09 00:56:47;;;;;;;24.63;4.90;;;;;;;;;;5015087;28;20032;-37
2023/01/09 00:59:14;;;;;;;25.58;5.03;;;;;;;;;;5032593;28;20036;-38
2023/01/09 01:01:41;;;;;;;23.23;4.90;;;;;;;;;;5032566;28;20080;-37
2023/01/09 01:09:38;;;;;;;21.95;4.45;;;;;;;;;;5032448;28;20400;-37
2023/01/09 01:12:05;;;;;;;23.77;4.53;;;;;;;;;;5032401;28;20056;-38
2023/01/09 01:14:36;;;;;;;21.38;4.70;;;;;;;;;;5032553;28;20033;-38
2023/01/09 01:17:04;;;;;;;18.95;4.55;;;;;;;;;;5032247;28;20025;-38
2023/01/09 01:19:31;;;;;;;20.48;4.38;;;;;;;;;;5014426;28;20387;-38
2023/01/09 01:21:58;;;;;;;27.95;5.20;;;;;;;;;;5032174;28;20033;-38
2023/01/09 01:24:25;;;;;;;19.90;4.90;;;;;;;;;;5032116;28;20041;-38
2023/01/09 01:26:52;;;;;;;23.88;4.72;;;;;;;;;;5032151;28;20491;-39
2023/01/09 01:29:19;;;;;;;17.13;4.05;;;;;;;;;;5032076;28;20393;-38
2023/01/09 01:31:46;;;;;;;19.73;4.05;;;;;;;;;;5014258;28;20028;-38
2023/01/09 01:34:13;;;;;;;14.00;3.90;;;;;;;;;;5032148;28;20160;-38
2023/01/09 01:36:40;;;;;;;17.05;4.57;;;;;;;;;;5032033;28;20492;-38
2023/01/09 01:39:07;;;;;;;20.10;4.55;;;;;;;;;;5032059;28;20017;-38
2023/01/09 01:41:34;;;;;;;20.85;4.40;;;;;;;;;;5031723;28;20111;-39
2023/01/09 01:44:05;;;;;;;22.95;4.63;;;;;;;;;;5014564;28;20029;-38
2023/01/09 01:46:33;;;;;;;20.60;4.25;;;;;;;;;;5031173;28;20511;-38
2023/01/09 01:49:14;;;;;;;21.42;3.75;;;;;;;;;;5031978;28;20112;-38
2023/01/09 01:51:43;;;;;;;16.77;4.15;;;;;;;;;;5031893;28;20024;-38
2023/01/09 01:54:13;;;;;;;20.10;4.15;;;;;;;;;;5031917;28;20034;-38
2023/01/09 01:56:48;;;;;;;25.02;4.90;;;;;;;;;;5031871;28;20050;-38
2023/01/09 01:59:15;;;;;;;18.90;3.97;;;;;;;;;;5031857;28;20104;-38
2023/01/09 02:01:44;;;;;;;24.25;4.38;;;;;;;;;;5031789;28;20105;-38
2023/01/09 02:04:11;;;;;;;17.70;4.13;;;;;;;;;;5031785;28;20040;-38
2023/01/09 02:06:38;;;;;;;21.45;4.60;;;;;;;;;;5013808;28;20380;-38
2023/01/09 02:09:06;;;;;;;18.85;4.15;;;;;;;;;;5031789;28;20388;-38
2023/01/09 02:11:33;;;;;;;19.95;4.32;;;;;;;;;;5031800;28;20084;-38
2023/01/09 02:14:01;;;;;;;18.70;3.92;;;;;;;;;;5031922;28;20529;-38
2023/01/09 02:16:40;;;;;;;19.55;4.68;;;;;;;;;;5031538;28;20033;-38
2023/01/09 02:19:25;;;;;;;18.58;4.13;;;;;;;;;;5031670;28;20028;-38
2023/01/09 02:21:55;;;;;;;19.05;4.10;;;;;;;;;;5031730;28;20049;-38
2023/01/09 02:24:40;;;;;;;17.98;3.60;;;;;;;;;;5031652;28;20034;-38
2023/01/09 02:27:25;;;;;;;17.58;3.90;;;;;;;;;;5031565;28;20116;-38
2023/01/09 02:30:07;;;;;;;18.10;3.63;;;;;;;;;;5031462;28;20139;-38
2023/01/09 02:32:43;;;;;;;16.98;4.03;;;;;;;;;;5031540;28;20034;-38
2023/01/09 02:35:16;;;;;;;15.77;3.83;;;;;;;;;;5031589;28;20507;-38
2023/01/09 02:37:49;;;;;;;15.95;3.92;;;;;;;;;;5031346;28;20117;-38
2023/01/09 02:40:26;;;;;;;16.73;3.85;;;;;;;;;;5031493;28;20025;-38
2023/01/09 02:42:55;;;;;;;17.42;3.63;;;;;;;;;;5031241;28;20152;-38
2023/01/09 02:45:22;;;;;;;19.02;3.92;;;;;;;;;;5031578;28;20446;-38
2023/01/09 02:47:49;;;;;;;18.80;4.10;;;;;;;;;;5031366;28;20025;-38
2023/01/09 02:50:18;;;;;;;17.83;3.90;;;;;;;;;;5031425;28;20408;-38
2023/01/09 02:52:48;;;;;;;15.30;3.70;;;;;;;;;;5031426;28;20107;-38
2023/01/09 02:55:33;;;;;;;19.40;4.22;;;;;;;;;;5031234;28;20491;-38
2023/01/09 02:58:20;;;;;;;21.08;4.28;;;;;;;;;;5031775;28;20041;-38
2023/01/09 03:00:58;;;;;;;16.33;3.50;;;;;;;;;;5034834;28;20021;-38
2023/01/09 03:03:31;;;;;;;14.55;2.83;;;;;;;;;;5035023;28;20380;-38
2023/01/09 03:06:02;;;;;;;12.98;3.50;;;;;;;;;;5034673;28;20387;-38
2023/01/09 03:08:40;;;;;;;23.30;4.18;;;;;;;;;;5034767;28;20040;-38
2023/01/09 03:11:07;;;;;;;16.17;3.25;;;;;;;;;;5034686;28;20063;-38
2023/01/09 03:13:52;;;;;;;10.65;2.97;;;;;;;;;;5016668;28;20057;-38
2023/01/09 03:16:31;;;;;;;15.05;3.65;;;;;;;;;;5034614;28;20061;-38
2023/01/09 03:18:59;;;;;;;15.45;3.50;;;;;;;;;;5034541;28;20030;-38
2023/01/09 03:21:26;;;;;;;13.25;3.33;;;;;;;;;;5034491;28;20068;-38
2023/01/09 03:23:55;;;;;;;18.77;3.10;;;;;;;;;;5034440;28;20033;-38
2023/01/09 03:26:23;;;;;;;11.60;3.28;;;;;;;;;;5034126;28;20049;-38
2023/01/09 03:28:50;;;;;;;15.95;4.10;;;;;;;;;;5034381;28;20025;-38
2023/01/09 03:31:18;;;;;;;14.02;3.45;;;;;;;;;;5034288;28;20061;-38
2023/01/09 03:33:44;;;;;;;12.60;3.08;;;;;;;;;;5034226;28;20100;-38
2023/01/09 03:36:12;;;;;;;13.00;3.20;;;;;;;;;;5034120;28;20022;-38
2023/01/09 03:38:39;;;;;;;12.20;3.15;;;;;;;;;;5034217;28;20502;-38
2023/01/09 03:41:07;;;;;;;13.38;2.83;;;;;;;;;;5033969;28;20029;-38
2023/01/09 03:43:34;;;;;;;10.52;2.90;;;;;;;;;;5034063;28;20061;-38
2023/01/09 03:46:01;;;;;;;12.98;2.72;;;;;;;;;;5033827;28;20044;-38
2023/01/09 03:48:28;;;;;;;12.88;3.15;;;;;;;;;;5033984;28;20392;-38
2023/01/09 03:50:55;;;;;;;10.98;3.08;;;;;;;;;;5033995;28;20083;-38
2023/01/09 03:53:23;;;;;;;13.07;3.22;;;;;;;;;;5016037;28;20116;-38
2023/01/09 03:55:51;;;;;;;15.27;3.35;;;;;;;;;;5033794;28;20029;-38
2023/01/09 03:58:20;;;;;;;12.43;3.08;;;;;;;;;;5033752;28;20711;-38
2023/01/09 04:00:51;;;;;;;11.20;3.00;;;;;;;;;;5033804;28;20105;-38
2023/01/09 04:03:20;;;;;;;11.30;3.00;;;;;;;;;;5033757;28;20510;-38
2023/01/09 04:05:48;;;;;;;14.68;2.95;;;;;;;;;;5033478;28;20452;-38
2023/01/09 04:08:15;;;;;;;11.88;2.88;;;;;;;;;;5033523;28;20017;-38
2023/01/09 04:10:45;;;;;;;10.30;2.55;;;;;;;;;;5015506;28;20036;-38
2023/01/09 04:13:12;;;;;;;18.60;2.70;;;;;;;;;;5015543;28;20388;-38
2023/01/09 04:15:39;;;;;;;15.02;3.60;;;;;;;;;;5033173;28;20033;-38
2023/01/09 04:18:06;;;;;;;13.43;3.00;;;;;;;;;;5033271;28;20029;-38
2023/01/09 04:20:33;;;;;;;12.02;2.88;;;;;;;;;;5033357;28;20703;-38
2023/01/09 04:23:01;;;;;;;12.80;2.92;;;;;;;;;;5015346;28;20032;-38
2023/01/09 04:25:27;;;;;;;13.23;2.80;;;;;;;;;;5015314;28;20088;-38
2023/01/09 04:27:54;;;;;;;10.63;2.65;;;;;;;;;;5033252;28;20026;-38
2023/01/09 04:30:21;;;;;;;13.02;2.80;;;;;;;;;;5033216;28;20072;-38
2023/01/09 04:32:48;;;;;;;12.52;2.90;;;;;;;;;;5033163;28;20365;-38
2023/01/09 04:35:15;;;;;;;11.98;2.72;;;;;;;;;;5032977;28;20026;-38
2023/01/09 04:37:42;;;;;;;11.40;2.58;;;;;;;;;;5032946;28;20072;-38
2023/01/09 04:40:10;;;;;;;12.82;2.72;;;;;;;;;;5033031;28;20407;-38
2023/01/09 04:42:38;;;;;;;11.95;3.00;;;;;;;;;;5032664;28;20056;-38
2023/01/09 04:45:06;;;;;;;12.02;2.25;;;;;;;;;;5032870;28;20033;-38
2023/01/09 04:47:33;;;;;;;12.27;2.70;;;;;;;;;;5032772;28;20083;-38
2023/01/09 04:50:00;;;;;;;9.85;2.50;;;;;;;;;;5032877;28;20056;-38
2023/01/09 04:52:27;;;;;;;13.13;2.55;;;;;;;;;;5032808;28;20070;-38
2023/01/09 04:54:54;;;;;;;15.20;2.58;;;;;;;;;;5032644;28;20029;-38
2023/01/09 04:57:21;;;;;;;12.10;2.78;;;;;;;;;;5032655;28;20025;-38
2023/01/09 04:59:48;;;;;;;9.07;2.28;;;;;;;;;;5032638;28;20021;-38
2023/01/09 05:02:15;;;;;;;10.18;2.33;;;;;;;;;;5032570;28;20022;-38
2023/01/09 05:04:42;;;;;;;6.20;2.45;;;;;;;;;;5032513;28;20026;-38
2023/01/09 05:07:09;;;;;;;9.95;2.50;;;;;;;;;;5032412;28;20095;-38
2023/01/09 05:09:36;;;;;;;6.95;2.22;;;;;;;;;;5014611;28;20458;-38
2023/01/09 05:12:03;;;;;;;11.00;2.47;;;;;;;;;;5032467;28;20021;-38
2023/01/09 05:14:30;;;;;;;7.95;2.63;;;;;;;;;;5032461;28;20080;-38
2023/01/09 05:16:57;;;;;;;8.98;2.13;;;;;;;;;;5032265;28;20025;-38
2023/01/09 05:19:24;;;;;;;12.38;2.78;;;;;;;;;;5032363;28;20052;-38
2023/01/09 05:21:51;;;;;;;8.95;2.30;;;;;;;;;;5031816;28;20048;-38
2023/01/09 05:24:18;;;;;;;7.75;2.10;;;;;;;;;;5032157;28;20026;-38
2023/01/09 05:26:45;;;;;;;9.82;2.03;;;;;;;;;;5032108;28;20021;-38
2023/01/09 05:29:12;;;;;;;8.60;2.60;;;;;;;;;;5032215;28;20096;-38
2023/01/09 05:31:38;;;;;;;9.00;2.20;;;;;;;;;;5032210;28;20025;-38
2023/01/09 05:34:05;;;;;;;8.82;2.20;;;;;;;;;;5032149;28;20094;-38
2023/01/09 05:36:32;;;;;;;9.45;2.22;;;;;;;;;;5032044;28;20491;-38
2023/01/09 05:39:01;;;;;;;7.35;2.30;;;;;;;;;;5032089;28;20026;-38
2023/01/09 05:41:28;;;;;;;8.98;2.25;;;;;;;;;;5031642;28;20407;-38
2023/01/09 05:43:55;;;;;;;8.55;2.22;;;;;;;;;;5032012;28;20021;-38
2023/01/09 05:46:22;;;;;;;5.88;2.25;;;;;;;;;;5031820;28;20049;-38
2023/01/09 05:48:49;;;;;;;8.15;2.60;;;;;;;;;;5032006;28;20025;-38
2023/01/09 05:51:16;;;;;;;9.10;2.38;;;;;;;;;;5031948;28;20022;-38
2023/01/09 05:53:42;;;;;;;7.85;1.65;;;;;;;;;;5031986;28;20017;-38
2023/01/09 05:56:09;;;;;;;10.05;2.40;;;;;;;;;;5031850;28;20026;-38
2023/01/09 05:58:36;;;;;;;8.43;2.60;;;;;;;;;;5031838;28;20506;-38
2023/01/09 06:01:03;;;;;;;8.23;2.03;;;;;;;;;;5029630;28;20709;-38
2023/01/09 06:03:30;;;;;;;11.15;2.20;;;;;;;;;;5031797;28;20022;-38
2023/01/09 06:05:57;;;;;;;8.88;2.50;;;;;;;;;;5031591;28;20033;-38
2023/01/09 06:08:24;;;;;;;10.25;2.20;;;;;;;;;;5031761;28;20017;-38
2023/01/09 06:10:51;;;;;;;11.98;2.35;;;;;;;;;;5031798;28;20021;-38
2023/01/09 06:13:18;;;;;;;8.13;2.33;;;;;;;;;;5031704;28;20104;-38
2023/01/09 06:15:47;;;;;;;8.77;2.25;;;;;;;;;;5031522;28;20033;-38
2023/01/09 06:18:14;;;;;;;8.68;2.25;;;;;;;;;;5031671;28;20026;-38
2023/01/09 06:20:41;;;;;;;12.55;2.30;;;;;;;;;;5031716;28;20032;-38
2023/01/09 06:23:08;;;;;;;8.15;2.08;;;;;;;;;;5031631;28;20033;-38
2023/01/09 06:25:34;;;;;;;9.73;2.13;;;;;;;;;;5031488;28;20104;-38
2023/01/09 06:28:01;;;;;;;15.05;2.33;;;;;;;;;;5031643;28;20075;-38
2023/01/09 06:30:28;;;;;;;11.57;2.45;;;;;;;;;;5031741;28;20018;-38
2023/01/09 06:32:55;;;;;;;7.70;2.80;;;;;;;;;;5031663;28;20053;-38
2023/01/09 06:35:22;;;;;;;10.93;2.72;;;;;;;;;;5035006;28;20087;-38
2023/01/09 06:37:49;;;;;;;11.27;2.30;;;;;;;;;;5035290;28;20045;-38
2023/01/09 06:40:19;;;;;;;9.50;2.30;;;;;;;;;;5035236;28;20026;-38
2023/01/09 06:42:46;;;;;;;8.57;2.30;;;;;;;;;;5016926;28;20053;-38
2023/01/09 06:45:13;;;;;;;10.02;2.30;;;;;;;;;;5034961;28;20044;-38
2023/01/09 06:47:40;;;;;;;6.22;2.58;;;;;;;;;;5035129;28;20105;-38
2023/01/09 06:50:11;;;;;;;7.05;2.80;;;;;;;;;;5035100;28;20021;-38
2023/01/09 06:52:38;;;;;;;11.57;2.90;;;;;;;;;;5035063;28;20033;-38
2023/01/09 06:55:05;;;;;;;10.18;2.65;;;;;;;;;;5035034;28;20044;-38
2023/01/09 06:57:32;;;;;;;9.13;2.50;;;;;;;;;;5034858;28;20029;-38
2023/01/09 06:59:59;;;;;;;9.98;2.78;;;;;;;;;;5034894;28;20029;-38
2023/01/09 07:02:26;;;;;;;9.70;2.45;;;;;;;;;;5034936;28;20025;-38
2023/01/09 07:04:52;;;;;;;10.05;2.90;;;;;;;;;;5034745;28;20095;-38
2023/01/09 07:07:21;;;;;;;9.90;2.90;;;;;;;;;;5194072;22;20421;-28
2023/01/09 07:09:48;;;;;;;9.05;2.80;;;;;;;;;;5030660;28;20049;-32
2023/01/09 07:12:15;;;;;;;7.30;2.47;;;;;;;;;;5034746;28;20036;-34
2023/01/09 07:14:42;;;;;;;9.48;3.03;;;;;;;;;;5034666;28;20398;-32
2023/01/09 07:17:11;;;;;;;8.30;2.70;;;;;;;;;;5034586;28;20085;-32
2023/01/09 07:19:38;;;;;;;7.78;2.67;;;;;;;;;;5034452;28;20030;-32
2023/01/09 07:22:05;;;;;;;12.82;3.10;;;;;;;;;;5034558;28;20026;-32
2023/01/09 07:24:32;;;;;;;12.70;2.67;;;;;;;;;;5034376;28;20029;-32
2023/01/09 07:26:58;;;;;;;9.35;2.65;;;;;;;;;;5034361;28;20553;-32
2023/01/09 07:29:25;;;;;;;6.20;2.50;;;;;;;;;;5034319;28;20053;-32
2023/01/09 07:31:52;;;;;;;8.00;2.90;;;;;;;;;;5034337;28;20049;-32
2023/01/09 07:34:19;;;;;;;8.60;2.63;;;;;;;;;;5034318;28;20467;-33
2023/01/09 07:36:47;;;;;;;11.02;3.05;;;;;;;;;;5034236;28;20026;-33
2023/01/09 07:39:14;;;;;;;11.63;2.80;;;;;;;;;;5034004;28;20076;-33
2023/01/09 07:41:41;;;;;;;10.13;2.65;;;;;;;;;;5016309;28;20109;-33
2023/01/09 07:44:08;;;;;;;9.38;2.92;;;;;;;;;;5033690;28;20029;-33
2023/01/09 07:46:35;;;;;;;11.45;2.80;;;;;;;;;;5034025;28;20529;-33
2023/01/09 07:49:02;;;;;;;9.50;2.85;;;;;;;;;;5033922;28;20033;-33
2023/01/09 07:51:29;;;;;;;10.77;3.08;;;;;;;;;;5033982;28;20028;-33
2023/01/09 07:53:56;;;;;;;11.75;3.15;;;;;;;;;;5016000;28;20037;-33
2023/01/09 07:56:23;;;;;;;8.82;2.97;;;;;;;;;;5033875;28;20108;-33
2023/01/09 07:58:50;;;;;;;7.85;2.88;;;;;;;;;;5033671;28;20026;-33
2023/01/09 08:01:17;;;;;;;10.70;2.80;;;;;;;;;;5033804;28;20169;-33
2023/01/09 08:03:44;;;;;;;4.97;2.70;;;;;;;;;;5033940;28;20427;-33
2023/01/09 08:06:11;;;;;;;8.07;2.78;;;;;;;;;;5033623;28;20078;-33
2023/01/09 08:08:38;;;;;;;7.78;3.10;;;;;;;;;;5033317;28;20050;-33
2023/01/09 08:11:04;;;;;;;10.05;2.85;;;;;;;;;;5033569;28;20029;-33
2023/01/09 08:13:31;;;;;;;9.63;3.17;;;;;;;;;;5033561;28;20026;-33
2023/01/09 08:15:58;;;;;;;7.80;3.10;;;;;;;;;;5033457;28;20033;-33
2023/01/09 08:18:25;;;;;;;8.88;3.13;;;;;;;;;;5015489;28;20017;-34
2023/01/09 08:20:52;;;;;;;11.20;3.05;;;;;;;;;;5033601;28;20029;-34
2023/01/09 08:23:19;;;;;;;9.10;2.92;;;;;;;;;;5033393;28;20049;-33
2023/01/09 08:25:46;;;;;;;7.97;3.47;;;;;;;;;;5033252;28;20605;-33
2023/01/09 08:28:13;;;;;;;8.32;3.50;;;;;;;;;;5033164;28;20026;-33
2023/01/09 08:30:40;;;;;;;7.07;3.10;;;;;;;;;;5033091;28;20025;-33
2023/01/09 08:33:07;;;;;;;9.45;2.83;;;;;;;;;;5033169;28;20068;-33
2023/01/09 08:35:34;;;;;;;9.65;3.30;;;;;;;;;;5033192;28;20080;-33
2023/01/09 08:38:01;;;;;;;8.02;3.50;;;;;;;;;;5032866;28;20032;-34
2023/01/09 08:40:28;;;;;;;6.03;3.33;;;;;;;;;;5033060;28;20052;-33
2023/01/09 08:48:25;;;;;;;6.70;3.10;;;;;;;;;;5032844;28;20032;-33
2023/01/09 08:50:53;;;;;;;9.25;3.20;;;;;;;;;;5032827;28;20097;-33
2023/01/09 08:53:20;;;;;;;9.90;3.20;;;;;;;;;;5032725;28;20029;-33
2023/01/09 08:55:47;;;;;;;5.75;3.15;;;;;;;;;;5032169;28;20025;-33
2023/01/09 08:58:14;;;;;;;8.45;3.45;;;;;;;;;;5032632;28;20080;-33
2023/01/09 09:00:41;;;;;;;7.55;3.20;;;;;;;;;;5032666;28;20101;-33
2023/01/09 09:03:10;;;;;;;8.65;3.30;;;;;;;;;;5032701;28;20060;-33
2023/01/09 09:05:37;;;;;;;7.85;3.13;;;;;;;;;;5032264;28;20044;-33
2023/01/09 09:08:05;;;;;;;9.10;3.15;;;;;;;;;;5032293;28;20085;-33
2023/01/09 09:10:32;;;;;;;6.47;3.15;;;;;;;;;;5032319;28;20395;-33
2023/01/09 09:12:59;;;;;;;12.48;3.47;;;;;;;;;;5032448;28;20067;-33
2023/01/09 09:15:27;;;;;;;6.78;3.60;;;;;;;;;;5032255;28;20368;-32
2023/01/09 09:17:55;;;;;;;8.90;3.22;;;;;;;;;;5032253;28;20034;-32
2023/01/09 09:20:23;;;;;;;10.68;3.42;;;;;;;;;;5032369;28;20109;-32
2023/01/09 09:22:50;;;;;;;7.55;3.13;;;;;;;;;;5032315;28;20096;-33
2023/01/09 09:25:18;;;;;;;8.02;3.50;;;;;;;;;;5032340;28;20034;-32
2023/01/09 09:27:45;;;;;;;13.90;3.60;;;;;;;;;;5032139;28;20500;-32
2023/01/09 09:30:13;;;;;;;14.27;4.03;;;;;;;;;;5032167;28;20029;-33
2023/01/09 09:32:40;;;;;;;14.15;4.00;;;;;;;;;;5032099;28;20075;-32
2023/01/09 09:35:07;;;;;;;13.98;4.20;;;;;;;;;;5032159;28;20045;-32
2023/01/09 09:37:34;;;;;;;8.65;3.70;;;;;;;;;;5031881;28;20380;-33
2023/01/09 09:40:01;;;;;;;15.60;3.90;;;;;;;;;;5032115;28;20148;-33
2023/01/09 09:45:39;;;;;;;12.60;3.95;;;;;;;;;;5032133;28;20059;-33
2023/01/09 09:48:18;;;;;;;11.73;3.70;;;;;;;;;;5031960;28;20105;-33
2023/01/09 09:50:54;;;;;;;12.88;3.70;;;;;;;;;;5031986;28;20029;-33
2023/01/09 09:53:39;;;;;;;10.38;4.40;;;;;;;;;;5031938;28;20017;-33
2023/01/09 09:56:10;;;;;;;12.40;3.83;;;;;;;;;;5031822;28;20406;-32
2023/01/09 09:58:39;;;;;;;14.97;4.40;;;;;;;;;;5031814;28;20518;-33
2023/01/09 10:01:07;;;;;;;10.52;3.60;;;;;;;;;;5014050;28;20395;-33
2023/01/09 10:03:40;;;;;;;12.60;4.40;;;;;;;;;;5031863;28;20029;-32
2023/01/09 10:06:18;;;;;;;14.50;4.47;;;;;;;;;;5031792;28;20041;-33
2023/01/09 10:08:48;;;;;;;13.48;4.03;;;;;;;;;;5034916;28;20068;-33
2023/01/09 10:11:24;;;;;;;10.90;3.88;;;;;;;;;;5035832;28;20033;-33
2023/01/09 10:14:03;;;;;;;12.40;4.10;;;;;;;;;;5035708;28;20021;-33
2023/01/09 10:16:45;;;;;;;12.15;3.97;;;;;;;;;;5035770;28;20084;-32
2023/01/09 10:19:15;;;;;;;9.25;3.67;;;;;;;;;;5035508;28;20498;-33
2023/01/09 10:21:48;;;;;;;13.32;4.05;;;;;;;;;;5035676;28;20025;-33
2023/01/09 10:24:30;;;;;;;13.93;4.30;;;;;;;;;;5035625;28;20017;-33
2023/01/09 10:26:58;;;;;;;14.07;4.30;;;;;;;;;;5035564;28;20053;-34
2023/01/09 10:29:40;;;;;;;13.05;4.63;;;;;;;;;;5035429;28;20527;-33
2023/01/09 10:32:16;;;;;;;14.48;4.45;;;;;;;;;;5035442;28;20022;-33
2023/01/09 10:34:51;;;;;;;15.57;4.35;;;;;;;;;;5035408;28;20074;-33
2023/01/09 10:37:44;;;;;;;11.20;4.45;;;;;;;;;;5035253;28;20025;-33
2023/01/09 10:40:29;;;;;;;15.07;4.90;;;;;;;;;;5032672;28;20049;-33
2023/01/09 10:43:02;;;;;;;17.73;4.30;;;;;;;;;;5035224;28;20490;-32
2023/01/09 10:45:36;;;;;;;11.38;4.00;;;;;;;;;;5035062;28;20108;-32
2023/01/09 10:48:12;;;;;;;17.73;4.30;;;;;;;;;;5034929;28;20034;-32
2023/01/09 10:50:41;;;;;;;12.50;4.20;;;;;;;;;;5035095;28;20078;-32
2023/01/09 10:53:18;;;;;;;15.55;4.25;;;;;;;;;;5035000;28;20075;-32
2023/01/09 10:55:49;;;;;;;16.63;4.22;;;;;;;;;;5034981;28;20033;-32
2023/01/09 10:58:17;;;;;;;21.35;5.25;;;;;;;;;;5034920;28;20581;-32
2023/01/09 11:00:45;;;;;;;15.25;4.43;;;;;;;;;;5034989;28;20025;-32
2023/01/09 11:03:22;;;;;;;11.65;4.35;;;;;;;;;;5034913;28;20025;-32
2023/01/09 11:05:53;;;;;;;19.73;5.07;;;;;;;;;;5034655;28;20029;-32
2023/01/09 11:08:20;;;;;;;14.63;4.30;;;;;;;;;;5034547;28;20049;-32
2023/01/09 11:10:51;;;;;;;14.55;4.53;;;;;;;;;;5034795;28;20100;-32
2023/01/09 11:13:19;;;;;;;15.55;4.88;;;;;;;;;;5034770;28;20036;-32
2023/01/09 11:15:46;;;;;;;17.60;5.15;;;;;;;;;;5034550;28;20040;-32
2023/01/09 11:18:21;;;;;;;25.58;5.05;;;;;;;;;;5034477;28;20036;-32
2023/01/09 11:20:48;;;;;;;17.50;4.55;;;;;;;;;;5034101;28;20036;-32
2023/01/09 11:23:28;;;;;;;17.58;4.90;;;;;;;;;;5034558;28;20028;-33
2023/01/09 11:25:57;;;;;;;18.02;5.00;;;;;;;;;;5034441;28;20030;-33
2023/01/09 11:28:24;;;;;;;20.35;4.65;;;;;;;;;;5034286;28;20025;-33
2023/01/09 11:31:01;;;;;;;17.90;5.18;;;;;;;;;;5034422;28;20029;-33
2023/01/09 11:33:34;;;;;;;14.02;4.60;;;;;;;;;;5034476;28;20044;-33
2023/01/09 11:36:03;;;;;;;16.83;4.50;;;;;;;;;;5034310;28;20025;-33
2023/01/09 11:38:32;;;;;;;20.77;5.20;;;;;;;;;;5034142;28;20053;-33
2023/01/09 11:41:00;;;;;;;18.80;4.47;;;;;;;;;;5034233;28;20079;-33
2023/01/09 11:43:31;;;;;;;18.88;4.85;;;;;;;;;;5034233;28;20368;-33
2023/01/09 11:45:59;;;;;;;16.98;4.78;;;;;;;;;;5033980;28;20051;-33
2023/01/09 11:48:32;;;;;;;21.30;5.07;;;;;;;;;;5034065;28;20027;-33
2023/01/09 11:51:00;;;;;;;17.92;4.68;;;;;;;;;;5033959;28;20418;-33
2023/01/09 11:53:27;;;;;;;20.73;4.95;;;;;;;;;;5034034;28;20029;-33
2023/01/09 11:56:02;;;;;;;15.98;4.70;;;;;;;;;;5016144;28;20411;-33
2023/01/09 11:58:33;;;;;;;17.00;4.65;;;;;;;;;;5033872;28;20029;-33
2023/01/09 12:01:00;;;;;;;18.95;4.93;;;;;;;;;;5033830;28;20029;-33
2023/01/09 12:03:27;;;;;;;14.27;4.60;;;;;;;;;;5033877;28;20754;-33
2023/01/09 12:06:00;;;;;;;23.65;4.88;;;;;;;;;;5033787;28;20491;-33
2023/01/09 12:08:36;;;;;;;22.20;5.38;;;;;;;;;;5033461;28;20045;-33
2023/01/09 12:11:21;;;;;;;19.63;5.38;;;;;;;;;;5033701;28;20056;-33
2023/01/09 12:14:00;;;;;;;22.67;5.32;;;;;;;;;;5033652;28;20064;-32
2023/01/09 12:16:33;;;;;;;18.17;5.63;;;;;;;;;;5033529;28;20116;-32
2023/01/09 12:19:02;;;;;;;15.35;5.22;;;;;;;;;;5033316;28;20063;-33
2023/01/09 12:21:34;;;;;;;22.48;4.95;;;;;;;;;;5033441;28;20045;-32
2023/01/09 12:24:04;;;;;;;21.50;5.40;;;;;;;;;;5033485;28;20092;-32
2023/01/09 12:26:49;;;;;;;20.50;5.57;;;;;;;;;;5033379;28;20395;-32
2023/01/09 12:29:34;;;;;;;17.48;5.30;;;;;;;;;;5015435;28;20037;-32
2023/01/09 12:32:01;;;;;;;20.42;5.10;;;;;;;;;;5033190;28;20029;-32
2023/01/09 12:34:43;;;;;;;18.65;5.15;;;;;;;;;;5033228;28;20092;-32
2023/01/09 12:37:10;;;;;;;29.70;5.82;;;;;;;;;;5033028;28;20053;-32
2023/01/09 12:39:42;;;;;;;27.25;5.30;;;;;;;;;;5015189;28;20380;-33
2023/01/09 12:42:15;;;;;;;21.77;5.32;;;;;;;;;;5033069;28;20029;-32
2023/01/09 12:45:14;;;;;;;19.73;5.63;;;;;;;;;;5015087;28;20079;-32
2023/01/09 12:47:44;;;;;;;21.33;5.05;;;;;;;;;;4999889;28;20041;-32
2023/01/09 12:50:27;;;;;;;18.90;5.45;;;;;;;;;;5032942;28;20495;-32
2023/01/09 12:53:03;;;;;;;24.55;5.40;;;;;;;;;;5032792;28;20033;-32
2023/01/09 12:55:33;;;;;;;17.55;4.90;;;;;;;;;;5032864;28;20448;-32
2023/01/09 12:58:03;;;;;;;24.38;6.07;;;;;;;;;;5032707;28;20025;-32
2023/01/09 13:00:30;;;;;;;24.83;5.50;;;;;;;;;;5032794;28;20470;-32
2023/01/09 13:03:06;;;;;;;26.58;6.03;;;;;;;;;;5032738;28;20025;-33
2023/01/09 13:05:36;;;;;;;27.05;6.25;;;;;;;;;;5032617;28;20086;-33
2023/01/09 13:08:12;;;;;;;24.83;5.45;;;;;;;;;;5032314;28;20411;-33
2023/01/09 13:10:42;;;;;;;22.40;5.82;;;;;;;;;;5032591;28;20029;-33
2023/01/09 13:13:18;;;;;;;28.52;5.45;;;;;;;;;;5032524;28;20021;-33
2023/01/09 13:15:47;;;;;;;28.63;5.72;;;;;;;;;;5032531;28;20033;-33
2023/01/09 13:18:20;;;;;;;23.20;5.22;;;;;;;;;;5032309;28;20021;-33
2023/01/09 13:20:49;;;;;;;24.30;6.05;;;;;;;;;;5032567;28;20038;-33
2023/01/09 13:23:22;;;;;;;22.10;5.85;;;;;;;;;;5032384;28;20094;-33
2023/01/09 13:25:51;;;;;;;28.35;5.85;;;;;;;;;;5032132;28;20124;-33
2023/01/09 13:28:18;;;;;;;27.80;5.70;;;;;;;;;;5032040;28;20029;-33
2023/01/09 13:30:51;;;;;;;26.73;5.50;;;;;;;;;;5032236;28;20127;-33
2023/01/09 13:33:24;;;;;;;21.48;6.32;;;;;;;;;;5032264;28;20025;-33
2023/01/09 13:35:56;;;;;;;27.52;5.82;;;;;;;;;;5032212;28;20033;-33
2023/01/09 13:38:24;;;;;;;24.58;5.80;;;;;;;;;;5031989;28;20038;-33
2023/01/09 13:44:02;;;;;;;26.65;5.88;;;;;;;;;;5032148;28;20044;-33
2023/01/09 13:46:37;;;;;;;28.20;6.55;;;;;;;;;;5031973;28;20034;-33
2023/01/09 13:49:04;;;;;;;31.92;6.40;;;;;;;;;;5014126;28;20395;-33
2023/01/09 13:51:56;;;;;;;26.65;6.18;;;;;;;;;;5032076;28;20136;-33
2023/01/09 13:54:40;;;;;;;25.80;5.67;;;;;;;;;;5032010;28;20495;-33
2023/01/09 13:57:27;;;;;;;28.45;6.15;;;;;;;;;;5031889;28;20030;-33
2023/01/09 13:59:56;;;;;;;27.70;6.57;;;;;;;;;;5031826;28;20030;-33
2023/01/09 14:02:43;;;;;;;29.70;6.72;;;;;;;;;;5032021;28;20438;-33
2023/01/09 14:05:15;;;;;;;24.77;5.50;;;;;;;;;;5031702;28;20042;-33
2023/01/09 14:07:47;;;;;;;24.33;6.53;;;;;;;;;;5031535;28;20495;-32
2023/01/09 14:10:23;;;;;;;28.77;5.85;;;;;;;;;;5031756;28;20041;-32
2023/01/09 14:12:53;;;;;;;24.63;6.43;;;;;;;;;;5031881;28;20033;-32
2023/01/09 14:15:40;;;;;;;31.30;6.75;;;;;;;;;;5031653;28;20533;-32
2023/01/09 14:18:27;;;;;;;29.38;5.85;;;;;;;;;;5031730;28;20148;-32
2023/01/09 14:21:03;;;;;;;23.13;6.53;;;;;;;;;;5031718;28;20439;-33
2023/01/09 14:23:30;;;;;;;30.70;6.38;;;;;;;;;;5031779;28;20045;-32
2023/01/09 14:25:57;;;;;;;33.22;5.97;;;;;;;;;;5031512;28;20033;-32
2023/01/09 14:28:25;;;;;;;37.25;7.07;;;;;;;;;;5031616;28;20037;-32
2023/01/09 14:30:52;;;;;;;28.70;6.03;;;;;;;;;;5031549;28;20069;-33
2023/01/09 14:33:20;;;;;;;28.02;5.53;;;;;;;;;;5031759;28;20124;-33
2023/01/09 14:36:10;;;;;;;26.77;5.63;;;;;;;;;;5031698;28;20086;-33
2023/01/09 14:38:53;;;;;;;31.33;5.88;;;;;;;;;;5031644;28;20025;-34
2023/01/09 14:41:56;;;;;;;21.17;6.30;;;;;;;;;;5031613;28;20105;-32
2023/01/09 14:44:29;;;;;;;30.63;6.07;;;;;;;;;;5031348;28;20041;-32
2023/01/09 14:47:00;;;;;;;26.88;5.72;;;;;;;;;;5031450;28;20029;-33
2023/01/09 14:49:42;;;;;;;31.48;5.78;;;;;;;;;;5031354;28;20446;-32
2023/01/09 14:52:24;;;;;;;25.75;6.40;;;;;;;;;;5031501;28;20501;-33
2023/01/09 14:54:51;;;;;;;31.33;6.77;;;;;;;;;;5033184;28;20095;-33
2023/01/09 14:57:25;;;;;;;26.65;5.60;;;;;;;;;;5034994;28;20741;-33
2023/01/09 15:00:00;;;;;;;24.05;5.00;;;;;;;;;;5034985;28;20044;-33
2023/01/09 15:02:33;;;;;;;28.90;6.10;;;;;;;;;;5034974;28;20021;-33
2023/01/09 15:05:04;;;;;;;27.70;6.38;;;;;;;;;;5034864;28;20040;-33
2023/01/09 15:07:33;;;;;;;27.33;6.32;;;;;;;;;;5034499;28;20044;-33